Time,TemperatureF,DewpointF,PressureIn,WindDirection,WindDirectionDegrees,WindSpeedMPH,WindSpeedGustMPH,Humidity,HourlyPrecipIn,Conditions,Clouds,dailyrainin,SoftwareType,DateUTC
2013-02-18 19:12:00,39.8,21.7,29.95,NNE,30,2.0,-999.0,48,0.00,,,0.00,WeatherSnoop3.0,2013-02-19 01:12:00,
2013-02-18 19:17:00,39.3,21.8,29.95,North,353,2.0,-999.0,49,0.00,,,0.00,WeatherSnoop3.0,2013-02-19 01:17:00,
2013-02-18 19:22:00,39.0,21.5,29.96,NE,34,4.0,-999.0,49,0.00,,,0.00,WeatherSnoop3.0,2013-02-19 01:22:00,
2013-02-18 19:27:00,38.8,21.3,29.96,ENE,60,4.0,-999.0,49,0.00,,,0.00,WeatherSnoop3.0,2013-02-19 01:27:00,
2013-02-18 19:32:00,38.5,21.0,29.96,NNE,26,4.0,-999.0,49,0.00,,,0.00,WeatherSnoop3.0,2013-02-19 01:32:00,
2013-02-18 19:37:00,38.2,21.2,29.96,NNE,20,3.0,-999.0,50,0.00,,,0.00,WeatherSnoop3.0,2013-02-19 01:37:00,
2013-02-18 19:42:00,37.7,20.8,29.97,North,353,3.0,-999.0,50,0.00,,,0.00,WeatherSnoop3.0,2013-02-19 01:42:00,
2013-02-18 19:47:00,37.3,20.9,29.97,NNE,32,0.0,-999.0,51,0.00,,,0.00,WeatherSnoop3.0,2013-02-19 01:47:00,
2013-02-18 19:52:00,36.9,20.5,29.97,NNE,13,2.0,-999.0,51,0.00,,,0.00,WeatherSnoop3.0,2013-02-19 01:52:00,
2013-02-18 19:57:00,36.7,20.8,29.97,NNE,19,2.0,-999.0,52,0.00,,,0.00,WeatherSnoop3.0,2013-02-19 01:57:00,
2013-02-18 20:02:00,36.4,20.5,29.98,NNE,29,2.0,-999.0,52,0.00,,,0.00,WeatherSnoop3.0,2013-02-19 02:02:00,
2013-02-18 20:07:00,36.1,20.2,29.98,NNE,15,0.0,-999.0,52,0.00,,,0.00,WeatherSnoop3.0,2013-02-19 02:07:00,
2013-02-18 20:12:00,35.6,20.2,29.98,NNE,26,3.0,-999.0,53,0.00,,,0.00,WeatherSnoop3.0,2013-02-19 02:12:00,
2013-02-18 20:17:00,35.1,20.2,29.98,North,11,2.0,-999.0,54,0.00,,,0.00,WeatherSnoop3.0,2013-02-19 02:17:00,
2013-02-18 20:22:00,34.6,19.7,29.99,North,349,1.0,-999.0,54,0.00,,,0.00,WeatherSnoop3.0,2013-02-19 02:22:00,
2013-02-18 20:27:00,34.2,19.7,29.99,North,8,1.0,-999.0,55,0.00,,,0.00,WeatherSnoop3.0,2013-02-19 02:27:00,
2013-02-18 20:32:00,34.1,19.6,29.99,North,1,1.0,-999.0,55,0.00,,,0.00,WeatherSnoop3.0,2013-02-19 02:32:00,
2013-02-18 20:37:00,33.7,19.7,30.00,NNE,19,1.0,-999.0,56,0.00,,,0.00,WeatherSnoop3.0,2013-02-19 02:37:00,
2013-02-18 20:42:00,33.4,19.8,30.00,NNE,28,2.0,-999.0,57,0.00,,,0.00,WeatherSnoop3.0,2013-02-19 02:42:00,
2013-02-18 20:47:00,33.3,19.7,30.00,North,358,1.0,-999.0,57,0.00,,,0.00,WeatherSnoop3.0,2013-02-19 02:47:00,
2013-02-18 20:52:00,33.3,19.7,30.01,NNE,29,0.0,-999.0,57,0.00,,,0.00,WeatherSnoop3.0,2013-02-19 02:52:00,
2013-02-18 20:57:00,33.1,19.5,30.01,NNW,328,0.0,-999.0,57,0.00,,,0.00,WeatherSnoop3.0,2013-02-19 02:57:00,
2013-02-18 21:02:00,32.8,19.3,30.01,North,353,0.0,-999.0,57,0.00,,,0.00,WeatherSnoop3.0,2013-02-19 03:02:00,
2013-02-18 21:12:00,32.2,19.1,30.02,North,1,0.0,-999.0,58,0.00,,,0.00,WeatherSnoop3.0,2013-02-19 03:12:00,
2013-02-18 21:17:00,31.7,19.0,30.02,North,1,0.0,-999.0,59,0.00,,,0.00,WeatherSnoop3.0,2013-02-19 03:17:00,
2013-02-18 21:22:00,31.1,18.9,30.03,North,1,0.0,-999.0,60,0.00,,,0.00,WeatherSnoop3.0,2013-02-19 03:22:00,
2013-02-18 21:27:00,30.6,18.8,30.03,North,1,0.0,-999.0,61,0.00,,,0.00,WeatherSnoop3.0,2013-02-19 03:27:00,
2013-02-18 21:37:00,30.1,18.7,30.03,NNW,341,0.0,-999.0,62,0.00,,,0.00,WeatherSnoop3.0,2013-02-19 03:37:00,
2013-02-18 21:57:00,29.0,18.4,30.05,NNW,342,0.0,-999.0,64,0.00,,,0.00,WeatherSnoop3.0,2013-02-19 03:57:00,
2013-02-18 22:02:00,28.5,18.3,30.05,NNW,342,0.0,-999.0,65,0.00,,,0.00,WeatherSnoop3.0,2013-02-19 04:02:00,
2013-02-18 22:07:00,28.2,18.0,30.05,NNW,342,0.0,-999.0,65,0.00,,,0.00,WeatherSnoop3.0,2013-02-19 04:07:00,
2013-02-18 22:12:00,27.8,18.3,30.05,NNW,342,0.0,-999.0,67,0.00,,,0.00,WeatherSnoop3.0,2013-02-19 04:12:00,
2013-02-18 22:17:00,27.7,18.2,30.06,NNW,342,0.0,-999.0,67,0.00,,,0.00,WeatherSnoop3.0,2013-02-19 04:17:00,
2013-02-18 22:22:00,27.8,18.3,30.06,NNW,342,0.0,-999.0,67,0.00,,,0.00,WeatherSnoop3.0,2013-02-19 04:22:00,
2013-02-18 22:27:00,27.8,17.9,30.06,NNW,342,0.0,-999.0,66,0.00,,,0.00,WeatherSnoop3.0,2013-02-19 04:27:00,
2013-02-18 22:32:00,27.7,18.2,30.07,NNW,342,0.0,-999.0,67,0.00,,,0.00,WeatherSnoop3.0,2013-02-19 04:32:00,
2013-02-18 22:37:00,27.6,18.1,30.07,NNW,342,0.0,-999.0,67,0.00,,,0.00,WeatherSnoop3.0,2013-02-19 04:37:00,
2013-02-18 22:42:00,27.5,18.0,30.07,NNW,342,0.0,-999.0,67,0.00,,,0.00,WeatherSnoop3.0,2013-02-19 04:42:00,
2013-02-18 22:47:00,27.7,18.2,30.07,NNW,342,0.0,-999.0,67,0.00,,,0.00,WeatherSnoop3.0,2013-02-19 04:47:00,
2013-02-18 22:52:00,27.7,17.8,30.07,NNW,342,0.0,-999.0,66,0.00,,,0.00,WeatherSnoop3.0,2013-02-19 04:52:00,
2013-02-18 22:57:00,27.8,17.9,30.07,NNW,342,0.0,-999.0,66,0.00,,,0.00,WeatherSnoop3.0,2013-02-19 04:57:00,
2013-02-18 23:02:00,27.2,17.4,30.07,NNW,342,0.0,-999.0,66,0.00,,,0.00,WeatherSnoop3.0,2013-02-19 05:02:00,
2013-02-18 23:07:00,26.3,17.2,30.07,NNW,342,0.0,-999.0,68,0.00,,,0.00,WeatherSnoop3.0,2013-02-19 05:07:00,
2013-02-18 23:12:00,26.2,17.4,30.07,NNW,342,0.0,-999.0,69,0.00,,,0.00,WeatherSnoop3.0,2013-02-19 05:12:00,
2013-02-18 23:17:00,26.0,17.2,30.07,NNW,342,0.0,-999.0,69,0.00,,,0.00,WeatherSnoop3.0,2013-02-19 05:17:00,
2013-02-18 23:22:00,25.9,17.2,30.08,NNW,342,0.0,-999.0,69,0.00,,,0.00,WeatherSnoop3.0,2013-02-19 05:22:00,
2013-02-18 23:27:00,25.7,17.3,30.07,NNW,342,0.0,-999.0,70,0.00,,,0.00,WeatherSnoop3.0,2013-02-19 05:27:00,
2013-02-18 23:32:00,26.7,17.9,30.08,North,11,0.0,-999.0,69,0.00,,,0.00,WeatherSnoop3.0,2013-02-19 05:32:00,
2013-02-18 23:37:00,27.2,18.1,30.07,North,354,0.0,-999.0,68,0.00,,,0.00,WeatherSnoop3.0,2013-02-19 05:37:00,
2013-02-18 23:42:00,28.0,18.5,30.07,North,5,1.0,-999.0,67,0.00,,,0.00,WeatherSnoop3.0,2013-02-19 05:42:00,
2013-02-18 23:47:00,28.6,18.7,30.07,NNE,20,0.0,-999.0,66,0.00,,,0.00,WeatherSnoop3.0,2013-02-19 05:47:00,
2013-02-18 23:52:00,29.0,18.7,30.07,NNE,20,0.0,-999.0,65,0.00,,,0.00,WeatherSnoop3.0,2013-02-19 05:52:00,
2013-02-18 23:57:00,29.3,18.7,30.08,North,4,0.0,-999.0,64,0.00,,,0.00,WeatherSnoop3.0,2013-02-19 05:57:00,